Preview of NWS' New Version of Forecast
This preview is not operational and should not be used for support decisions.

Terminal Aerodrome Forecast (TAF)

Issued by National Weather Service (NWS)

                            
000
FTUS46 KMFR 191720
TAFRBG
TAF
KRBG 191720Z 1918/2018 00000KT P6SM OVC018
     FM192300 36008KT P6SM SKC
     FM200400 34002KT P6SM SKC=